createdAt,value
2018-04-24T00:02:25.385Z,99.10
2018-04-24T00:04:54.754Z,99.10
2018-04-24T00:07:24.039Z,99.40
2018-04-24T00:09:53.383Z,99.30
2018-04-24T00:12:22.638Z,99.50
2018-04-24T00:14:51.935Z,99.70
2018-04-24T00:17:21.226Z,99.70
2018-04-24T00:19:50.529Z,99.80
2018-04-24T00:22:19.841Z,99.80
2018-04-24T00:24:49.222Z,99.90
2018-04-24T00:27:18.498Z,99.90
2018-04-24T00:29:47.819Z,99.90
2018-04-24T00:32:17.100Z,99.90
2018-04-24T00:34:46.406Z,99.90
2018-04-24T00:37:15.742Z,99.90
2018-04-24T00:39:45.037Z,99.90
2018-04-24T00:42:14.321Z,99.90
2018-04-24T00:44:43.645Z,99.90
2018-04-24T00:47:12.942Z,99.90
2018-04-24T00:49:42.261Z,99.90
2018-04-24T00:52:11.553Z,99.90
2018-04-24T00:54:40.851Z,99.90
2018-04-24T00:57:11.079Z,99.90
2018-04-24T00:59:41.245Z,99.90
2018-04-24T01:02:10.542Z,99.90
2018-04-24T01:04:39.823Z,99.90
2018-04-24T01:07:09.882Z,99.90
2018-04-24T01:09:39.185Z,99.90
2018-04-24T01:12:08.479Z,99.90
2018-04-24T01:14:37.767Z,99.90
2018-04-24T01:17:07.067Z,99.90
2018-04-24T01:19:36.380Z,99.90
2018-04-24T01:22:05.928Z,99.90
2018-04-24T01:24:35.237Z,99.90
2018-04-24T01:27:05.332Z,99.90
2018-04-24T01:29:34.630Z,99.90
2018-04-24T01:32:03.927Z,99.90
2018-04-24T01:34:33.241Z,99.90
2018-04-24T01:37:02.536Z,99.90
2018-04-24T01:39:31.862Z,99.90
2018-04-24T01:42:01.154Z,99.90
2018-04-24T01:44:30.454Z,99.90
2018-04-24T01:46:59.758Z,99.90
2018-04-24T01:49:29.059Z,99.90
2018-04-24T01:52:16.756Z,99.90
2018-04-24T01:54:46.028Z,99.90
2018-04-24T01:57:15.318Z,99.90
2018-04-24T01:59:44.610Z,99.90
2018-04-24T02:02:13.912Z,99.90
2018-04-24T02:04:43.978Z,99.90
2018-04-24T02:07:13.292Z,99.90
2018-04-24T02:09:42.594Z,99.90
2018-04-24T02:12:11.886Z,99.90
2018-04-24T02:14:41.349Z,99.90
2018-04-24T02:17:10.637Z,99.90
2018-04-24T02:19:40.690Z,99.90
2018-04-24T02:22:09.976Z,99.90
2018-04-24T02:24:39.267Z,99.90
2018-04-24T02:27:08.580Z,99.90
2018-04-24T02:29:37.870Z,99.90
2018-04-24T02:32:07.194Z,99.90
2018-04-24T02:34:36.481Z,99.90
2018-04-24T02:37:05.797Z,99.90
2018-04-24T02:39:35.118Z,99.90
2018-04-24T02:42:04.439Z,99.90
2018-04-24T02:44:33.730Z,99.90
2018-04-24T02:47:03.035Z,99.90
2018-04-24T02:49:32.337Z,99.90
2018-04-24T02:52:01.635Z,99.90
2018-04-24T02:54:30.939Z,99.90
2018-04-24T02:57:00.236Z,99.90
2018-04-24T02:59:29.551Z,99.90
2018-04-24T03:01:59.615Z,99.90
2018-04-24T03:04:28.914Z,99.90
2018-04-24T03:07:01.411Z,99.90
2018-04-24T03:09:32.223Z,99.90
2018-04-24T03:12:03.489Z,99.90
2018-04-24T03:14:33.136Z,99.90
2018-04-24T03:17:03.459Z,99.90
2018-04-24T03:19:33.972Z,99.90
2018-04-24T03:22:04.165Z,99.90
2018-04-24T03:24:33.474Z,99.90
2018-04-24T03:27:02.760Z,99.90
2018-04-24T03:29:32.064Z,99.90
2018-04-24T03:32:02.124Z,99.90
2018-04-24T03:34:32.188Z,99.90
2018-04-24T03:37:01.555Z,99.90
2018-04-24T03:39:31.643Z,99.90
2018-04-24T03:42:00.923Z,99.90
2018-04-24T03:44:30.216Z,99.90
2018-04-24T03:46:59.525Z,99.90
2018-04-24T03:49:28.833Z,99.90
2018-04-24T03:51:58.908Z,99.90
2018-04-24T03:54:28.214Z,99.90
2018-04-24T03:56:57.523Z,99.90
2018-04-24T03:59:26.818Z,99.90
2018-04-24T04:01:56.115Z,99.90
2018-04-24T04:04:25.407Z,99.90
2018-04-24T04:06:55.458Z,99.90
2018-04-24T04:09:24.794Z,99.90
2018-04-24T04:11:54.077Z,99.90
2018-04-24T04:14:23.382Z,99.90
2018-04-24T04:16:54.100Z,99.90
2018-04-24T04:19:41.129Z,99.90
2018-04-24T04:22:28.290Z,99.90
2018-04-24T04:24:58.360Z,99.90
2018-04-24T04:27:27.659Z,99.90
2018-04-24T04:29:57.011Z,99.90
2018-04-24T04:32:27.874Z,99.90
2018-04-24T04:34:57.295Z,99.90
2018-04-24T04:37:26.709Z,99.90
2018-04-24T04:39:55.999Z,99.90
2018-04-24T04:42:25.279Z,99.90
2018-04-24T04:44:54.580Z,99.90
2018-04-24T04:47:23.866Z,99.90
2018-04-24T04:49:53.176Z,99.90
2018-04-24T04:52:22.477Z,99.90
2018-04-24T04:54:51.773Z,99.90
2018-04-24T04:57:21.070Z,99.90
2018-04-24T04:59:50.368Z,99.90
2018-04-24T05:02:19.707Z,99.90
2018-04-24T05:04:49.003Z,99.90
2018-04-24T05:07:18.312Z,99.90
2018-04-24T05:09:47.615Z,99.90
2018-04-24T05:12:16.914Z,99.90
2018-04-24T05:14:46.238Z,99.90
2018-04-24T05:17:15.553Z,99.90
2018-04-24T05:19:45.639Z,99.90
2018-04-24T05:22:14.951Z,99.90
2018-04-24T05:24:44.274Z,99.90
2018-04-24T05:27:13.574Z,99.90
2018-04-24T05:29:43.660Z,99.90
2018-04-24T05:32:12.984Z,99.90
2018-04-24T05:34:42.288Z,99.90
2018-04-24T05:37:11.651Z,99.90
2018-04-24T05:39:40.953Z,99.90
2018-04-24T05:42:10.255Z,99.90
2018-04-24T05:44:39.567Z,99.90
2018-04-24T05:47:09.065Z,99.30
2018-04-24T05:49:38.662Z,98.70
2018-04-24T05:52:08.242Z,98.30
2018-04-24T05:54:37.907Z,97.80
2018-04-24T05:57:07.390Z,97.80
2018-04-24T05:59:37.524Z,96.80
2018-04-24T06:02:08.044Z,96.00
2018-04-24T06:04:38.277Z,95.50
2018-04-24T06:07:07.730Z,95.50
2018-04-24T06:09:38.831Z,95.40
2018-04-24T06:12:08.278Z,95.40
2018-04-24T06:14:38.391Z,95.30
2018-04-24T06:17:07.798Z,94.30
2018-04-24T06:19:37.150Z,94.40
2018-04-24T06:22:07.427Z,93.50
2018-04-24T06:24:36.824Z,93.30
2018-04-24T06:27:06.901Z,93.80
2018-04-24T06:29:36.181Z,93.80
2018-04-24T06:32:05.468Z,93.40
2018-04-24T06:34:34.765Z,93.60
2018-04-24T06:37:04.058Z,93.00
2018-04-24T06:39:33.340Z,93.20
2018-04-24T06:42:02.650Z,93.20
2018-04-24T06:44:31.927Z,91.80
2018-04-24T06:47:01.375Z,93.00
2018-04-24T06:49:30.668Z,92.60
2018-04-24T06:51:59.954Z,91.70
2018-04-24T06:54:29.244Z,89.80
2018-04-24T06:56:58.592Z,87.60
2018-04-24T06:59:28.011Z,87.80
2018-04-24T07:01:57.317Z,85.50
2018-04-24T07:04:26.986Z,86.70
2018-04-24T07:06:56.372Z,88.60
2018-04-24T07:09:26.625Z,86.70
2018-04-24T07:11:56.716Z,87.50
2018-04-24T07:14:26.036Z,87.40
2018-04-24T07:16:55.395Z,86.90
2018-04-24T07:19:24.607Z,87.70
2018-04-24T07:21:54.692Z,87.70
2018-04-24T07:24:23.967Z,87.70
2018-04-24T07:26:54.171Z,87.30
2018-04-24T07:29:23.965Z,87.00
2018-04-24T07:31:54.022Z,87.70
2018-04-24T07:34:23.357Z,87.60
2018-04-24T07:36:53.613Z,84.10
2018-04-24T07:39:22.907Z,84.10
2018-04-24T07:41:52.215Z,85.10
2018-04-24T07:44:21.633Z,84.20
2018-04-24T07:46:51.015Z,85.60
2018-04-24T07:49:20.240Z,85.90
2018-04-24T07:51:49.550Z,85.50
2018-04-24T07:54:18.840Z,85.80
2018-04-24T07:56:48.146Z,84.10
2018-04-24T07:59:17.532Z,84.40
2018-04-24T08:01:46.749Z,84.20
2018-04-24T08:04:16.026Z,83.90
2018-04-24T08:06:45.317Z,84.90
2018-04-24T08:09:14.603Z,84.20
2018-04-24T08:11:44.685Z,86.00
2018-04-24T08:14:13.970Z,86.00
2018-04-24T08:16:43.270Z,83.80
2018-04-24T08:19:12.561Z,83.90
2018-04-24T08:21:41.847Z,83.60
2018-04-24T08:24:11.149Z,80.50
2018-04-24T08:26:40.439Z,80.80
2018-04-24T08:29:09.721Z,81.50
2018-04-24T08:31:39.794Z,82.20
2018-04-24T08:34:09.097Z,82.20
2018-04-24T08:36:38.391Z,81.50
2018-04-24T08:39:07.690Z,83.10
2018-04-24T08:41:36.994Z,83.30
2018-04-24T08:44:06.382Z,82.70
2018-04-24T08:46:35.663Z,83.90
2018-04-24T08:49:04.984Z,83.50
2018-04-24T08:51:34.283Z,83.70
2018-04-24T08:54:03.565Z,83.60
2018-04-24T08:56:32.855Z,83.90
2018-04-24T08:59:02.147Z,82.20
2018-04-24T09:01:32.230Z,81.30
2018-04-24T09:04:01.517Z,81.30
2018-04-24T09:06:30.814Z,82.40
2018-04-24T09:09:00.141Z,83.50
2018-04-24T09:11:29.468Z,81.10
2018-04-24T09:13:59.589Z,80.20
2018-04-24T09:16:28.809Z,80.20
2018-04-24T09:18:58.113Z,80.50
2018-04-24T09:21:27.410Z,81.00
2018-04-24T09:23:56.701Z,82.10
2018-04-24T09:26:26.006Z,81.30
2018-04-24T09:28:55.298Z,81.20
2018-04-24T09:31:30.211Z,82.10
2018-04-24T09:34:00.271Z,80.50
2018-04-24T09:36:29.580Z,80.50
2018-04-24T09:38:58.922Z,80.80
2018-04-24T09:41:28.183Z,80.30
2018-04-24T09:43:57.475Z,79.50
2018-04-24T09:46:26.783Z,77.70
2018-04-24T09:48:56.091Z,78.00
2018-04-24T09:51:25.455Z,78.40
2018-04-24T09:53:54.921Z,78.30
2018-04-24T09:56:24.218Z,79.40
2018-04-24T09:58:53.515Z,78.90
2018-04-24T10:01:29.216Z,76.70
2018-04-24T10:03:58.499Z,76.90
2018-04-24T10:06:28.560Z,75.50
2018-04-24T10:08:57.847Z,75.50
2018-04-24T10:11:27.125Z,75.10
2018-04-24T10:13:56.433Z,73.40
2018-04-24T10:16:26.610Z,72.50
2018-04-24T10:18:55.919Z,74.10
2018-04-24T10:21:25.219Z,73.90
2018-04-24T10:23:54.560Z,72.70
2018-04-24T10:26:23.855Z,74.70
2018-04-24T10:28:53.167Z,74.10
2018-04-24T10:31:22.451Z,71.20
2018-04-24T10:33:51.757Z,73.60
2018-04-24T10:36:21.051Z,73.40
2018-04-24T10:38:50.337Z,73.70
2018-04-24T10:41:20.439Z,73.30
2018-04-24T10:43:49.822Z,73.20
2018-04-24T10:46:19.044Z,71.30
2018-04-24T10:48:48.321Z,73.50
2018-04-24T10:51:17.623Z,74.60
2018-04-24T10:53:47.692Z,73.60
2018-04-24T10:56:17.765Z,74.20
2018-04-24T10:58:47.057Z,74.20
2018-04-24T11:01:16.361Z,75.40
2018-04-24T11:03:45.670Z,76.30
2018-04-24T11:06:14.962Z,74.70
2018-04-24T11:08:44.250Z,75.20
2018-04-24T11:11:13.555Z,73.90
2018-04-24T11:13:42.850Z,75.60
2018-04-24T11:16:12.156Z,78.10
2018-04-24T11:18:41.456Z,79.10
2018-04-24T11:21:10.768Z,79.80
2018-04-24T11:23:40.799Z,79.30
2018-04-24T11:26:10.094Z,79.60
2018-04-24T11:28:39.393Z,80.30
2018-04-24T11:31:08.695Z,79.80
2018-04-24T11:33:38.112Z,80.50
2018-04-24T11:36:07.424Z,81.70
2018-04-24T11:38:36.725Z,81.50
2018-04-24T11:41:06.047Z,81.60
2018-04-24T11:43:35.347Z,80.80
2018-04-24T11:46:05.412Z,81.10
2018-04-24T11:48:34.740Z,81.10
2018-04-24T11:51:04.020Z,81.20
2018-04-24T11:53:33.312Z,80.50
2018-04-24T11:56:02.592Z,80.10
2018-04-24T11:58:31.887Z,80.70
2018-04-24T12:01:01.216Z,80.60
2018-04-24T12:03:30.510Z,80.10
2018-04-24T12:05:59.834Z,80.00
2018-04-24T12:08:29.159Z,79.30
2018-04-24T12:10:58.420Z,79.60
2018-04-24T12:13:27.758Z,79.40
2018-04-24T12:15:57.812Z,79.90
2018-04-24T12:18:27.182Z,80.00
2018-04-24T12:20:57.260Z,82.00
2018-04-24T12:23:26.547Z,82.00
2018-04-24T12:25:55.841Z,79.40
2018-04-24T12:28:25.158Z,79.10
2018-04-24T12:30:54.449Z,79.70
2018-04-24T12:33:23.779Z,78.50
2018-04-24T12:35:53.069Z,77.30
2018-04-24T12:38:22.362Z,77.60
2018-04-24T12:40:51.709Z,77.90
2018-04-24T12:43:21.028Z,79.10
2018-04-24T12:45:50.333Z,79.50
2018-04-24T12:48:19.658Z,78.70
2018-04-24T12:50:49.186Z,80.90
2018-04-24T12:53:18.687Z,79.80
2018-04-24T12:55:48.118Z,80.30
2018-04-24T12:58:17.421Z,80.00
2018-04-24T13:00:47.499Z,80.30
2018-04-24T13:03:16.791Z,80.20
2018-04-24T13:05:46.091Z,80.70
2018-04-24T13:08:15.402Z,80.70
2018-04-24T13:10:44.710Z,80.30
2018-04-24T13:13:13.998Z,80.50
2018-04-24T13:15:43.294Z,81.90
2018-04-24T13:18:12.581Z,80.70
2018-04-24T13:20:41.888Z,78.70
2018-04-24T13:23:11.199Z,79.00
2018-04-24T13:25:41.284Z,78.20
2018-04-24T13:28:10.640Z,78.40
2018-04-24T13:30:42.518Z,80.50
2018-04-24T13:33:14.123Z,80.50
2018-04-24T13:35:44.578Z,80.30
2018-04-24T13:38:16.558Z,80.10
2018-04-24T13:40:46.491Z,80.20
2018-04-24T13:43:19.375Z,79.10
2018-04-24T13:45:48.912Z,79.10
2018-04-24T13:48:19.464Z,77.90
2018-04-24T13:50:49.148Z,78.30
2018-04-24T13:53:20.386Z,78.60
2018-04-24T13:55:50.034Z,78.10
2018-04-24T13:58:20.888Z,77.30
2018-04-24T14:00:52.479Z,77.20
2018-04-24T14:03:23.047Z,75.80
2018-04-24T14:05:52.480Z,77.10
2018-04-24T14:08:22.567Z,76.50
2018-04-24T14:10:51.852Z,76.50
2018-04-24T14:13:23.032Z,76.50
2018-04-24T14:15:55.245Z,76.70
2018-04-24T14:18:26.558Z,76.60
2018-04-24T14:20:59.479Z,75.60
2018-04-24T14:23:33.106Z,75.50
2018-04-24T14:26:05.193Z,74.70
2018-04-24T14:28:38.067Z,74.90
2018-04-24T14:31:11.007Z,74.80
2018-04-24T14:33:43.803Z,74.20
2018-04-24T14:36:15.791Z,73.30
2018-04-24T14:38:47.021Z,73.60
2018-04-24T14:41:20.144Z,74.60
2018-04-24T14:43:50.844Z,73.30
2018-04-24T14:46:21.272Z,71.70
2018-04-24T14:48:52.494Z,71.20
2018-04-24T14:51:24.101Z,71.10
2018-04-24T14:53:54.896Z,72.80
2018-04-24T14:56:26.102Z,72.80
2018-04-24T14:58:59.955Z,71.00
2018-04-24T15:01:31.566Z,71.50
2018-04-24T15:04:04.122Z,69.60
2018-04-24T15:06:45.636Z,70.40
2018-04-24T15:09:17.074Z,70.30
2018-04-24T15:11:49.104Z,68.80
2018-04-24T15:14:20.306Z,67.50
2018-04-24T15:16:53.549Z,68.70
2018-04-24T15:19:25.141Z,68.70
2018-04-24T15:21:56.815Z,69.80
2018-04-24T15:24:28.766Z,73.40
2018-04-24T15:27:00.736Z,73.90
2018-04-24T15:29:32.134Z,74.30
2018-04-24T15:32:03.868Z,74.90
2018-04-24T15:34:35.281Z,74.90
2018-04-24T15:37:07.155Z,74.60
2018-04-24T15:39:38.449Z,75.40
2018-04-24T15:42:08.208Z,72.80
2018-04-24T15:44:39.434Z,72.40
2018-04-24T15:47:12.389Z,71.40
2018-04-24T15:49:44.037Z,70.50
2018-04-24T15:52:15.095Z,70.40
2018-04-24T15:54:50.082Z,69.30
2018-04-24T15:57:23.234Z,69.30
2018-04-24T15:59:56.543Z,70.70
2018-04-24T16:02:29.207Z,70.70
2018-04-24T16:05:02.087Z,71.20
2018-04-24T16:07:33.016Z,70.00
2018-04-24T16:10:04.755Z,70.30
2018-04-24T16:12:37.586Z,71.20
2018-04-24T16:15:10.156Z,71.80
2018-04-24T16:17:41.464Z,71.70
2018-04-24T16:20:10.931Z,71.20
2018-04-24T16:22:41.445Z,70.90
2018-04-24T16:25:13.133Z,70.90
2018-04-24T16:27:44.453Z,71.20
2018-04-24T16:30:15.109Z,71.40
2018-04-24T16:32:46.419Z,71.30
2018-04-24T16:35:18.143Z,70.50
2018-04-24T16:37:48.844Z,70.30
2018-04-24T16:40:19.210Z,66.70
2018-04-24T16:42:49.311Z,64.40
2018-04-24T16:45:18.971Z,64.20
2018-04-24T16:47:49.574Z,62.70
2018-04-24T16:50:18.873Z,62.20
2018-04-24T16:52:48.369Z,66.90
2018-04-24T16:55:17.673Z,70.10
2018-04-24T16:57:46.949Z,71.60
2018-04-24T17:00:16.292Z,71.80
2018-04-24T17:02:46.530Z,71.60
2018-04-24T17:05:15.883Z,71.80
2018-04-24T17:07:45.327Z,72.70
2018-04-24T17:10:14.618Z,72.80
2018-04-24T17:12:44.855Z,73.10
2018-04-24T17:15:14.140Z,73.20
2018-04-24T17:17:43.437Z,73.90
2018-04-24T17:20:12.727Z,73.70
2018-04-24T17:22:42.046Z,73.40
2018-04-24T17:25:11.320Z,74.60
2018-04-24T17:27:40.630Z,74.50
2018-04-24T17:30:09.912Z,74.30
2018-04-24T17:32:40.330Z,74.60
2018-04-24T17:35:09.621Z,74.30
2018-04-24T17:37:38.937Z,75.20
2018-04-24T17:40:08.228Z,75.30
2018-04-24T17:42:37.543Z,75.40
2018-04-24T17:45:06.840Z,75.30
2018-04-24T17:47:36.125Z,76.20
2018-04-24T17:50:05.409Z,76.00
2018-04-24T17:52:35.490Z,76.70
2018-04-24T17:55:04.822Z,76.80
2018-04-24T17:57:35.016Z,77.20
2018-04-24T18:00:04.347Z,77.20
2018-04-24T18:02:33.628Z,77.90
2018-04-24T18:05:03.011Z,77.90
2018-04-24T18:07:32.308Z,78.70
2018-04-24T18:10:01.837Z,77.90
2018-04-24T18:12:32.147Z,78.30
2018-04-24T18:15:01.455Z,78.20
2018-04-24T18:17:30.745Z,78.00
2018-04-24T18:20:00.049Z,78.70
2018-04-24T18:22:29.349Z,78.30
2018-04-24T18:24:59.216Z,78.10
2018-04-24T18:27:29.786Z,77.80
2018-04-24T18:29:59.555Z,78.00
2018-04-24T18:32:30.027Z,78.10
2018-04-24T18:35:00.116Z,78.20
2018-04-24T18:37:29.637Z,78.50
2018-04-24T18:39:59.996Z,78.00
2018-04-24T18:42:29.806Z,78.10
2018-04-24T18:44:59.590Z,78.20
2018-04-24T18:47:29.800Z,80.10
2018-04-24T18:49:59.469Z,80.10
2018-04-24T18:52:29.038Z,81.40
2018-04-24T18:54:58.797Z,82.80
2018-04-24T18:57:28.293Z,83.10
2018-04-24T18:59:57.833Z,83.50
2018-04-24T19:02:27.739Z,83.80
2018-04-24T19:04:58.175Z,84.60
2018-04-24T19:07:27.476Z,84.50
2018-04-24T19:09:58.707Z,85.00
2018-04-24T19:12:28.209Z,85.50
2018-04-24T19:14:58.427Z,85.60
2018-04-24T19:17:28.159Z,85.60
2018-04-24T19:19:57.781Z,86.10
2018-04-24T19:22:27.101Z,87.10
2018-04-24T19:25:01.947Z,87.70
2018-04-24T19:27:31.251Z,88.20
2018-04-24T19:30:00.551Z,88.00
2018-04-24T19:32:31.402Z,88.90
2018-04-24T19:35:01.562Z,88.90
2018-04-24T19:37:30.851Z,88.80
2018-04-24T19:40:05.692Z,89.20
2018-04-24T19:42:35.204Z,89.50
2018-04-24T19:45:04.778Z,90.00
2018-04-24T19:47:34.253Z,90.10
2018-04-24T19:50:09.243Z,90.30
2018-04-24T19:52:38.875Z,90.30
2018-04-24T19:55:13.743Z,90.60
2018-04-24T19:57:44.007Z,90.70
2018-04-24T20:00:13.417Z,90.70
2018-04-24T20:02:42.955Z,91.00
2018-04-24T20:05:12.623Z,91.20
2018-04-24T20:07:42.013Z,91.20
2018-04-24T20:10:11.435Z,91.40
2018-04-24T20:12:41.007Z,91.60
2018-04-24T20:15:10.449Z,91.80
2018-04-24T20:17:40.199Z,92.00
2018-04-24T20:20:10.747Z,92.20
2018-04-24T20:22:40.215Z,92.40
2018-04-24T20:25:09.599Z,92.50
2018-04-24T20:27:38.892Z,92.30
2018-04-24T20:30:08.199Z,92.30
2018-04-24T20:32:37.494Z,92.50
2018-04-24T20:35:07.500Z,92.70
2018-04-24T20:37:36.785Z,92.80
2018-04-24T20:40:06.157Z,92.90
2018-04-24T20:42:35.481Z,93.00
2018-04-24T20:45:04.830Z,93.10
2018-04-24T20:47:34.914Z,93.20
2018-04-24T20:50:04.227Z,93.20
2018-04-24T20:52:33.546Z,93.30
2018-04-24T20:55:02.844Z,93.50
2018-04-24T20:57:32.387Z,93.50
2018-04-24T21:00:02.705Z,93.60
2018-04-24T21:02:32.054Z,93.60
2018-04-24T21:05:01.338Z,93.90
2018-04-24T21:07:30.636Z,94.00
2018-04-24T21:09:59.924Z,94.20
2018-04-24T21:15:05.926Z,94.40
2018-04-24T21:17:35.243Z,94.40
2018-04-24T21:20:04.535Z,94.50
2018-04-24T21:22:33.852Z,94.70
2018-04-24T21:25:03.136Z,94.70
2018-04-24T21:27:32.430Z,94.60
2018-04-24T21:30:01.758Z,94.70
2018-04-24T21:32:31.045Z,94.70
2018-04-24T21:35:00.646Z,94.70
2018-04-24T21:37:29.869Z,94.90
2018-04-24T21:39:59.164Z,94.90
2018-04-24T21:42:28.459Z,94.80
2018-04-24T21:44:57.758Z,94.80
2018-04-24T21:47:27.048Z,94.90
2018-04-24T21:49:56.347Z,94.80
2018-04-24T21:52:25.656Z,94.90
2018-04-24T21:54:54.942Z,95.00
2018-04-24T21:57:24.244Z,95.00
2018-04-24T21:59:53.566Z,94.90
2018-04-24T22:02:22.887Z,95.10
2018-04-24T22:04:52.173Z,95.30
2018-04-24T22:07:21.461Z,95.20
2018-04-24T22:09:50.741Z,95.10
2018-04-24T22:12:20.057Z,95.30
2018-04-24T22:14:49.339Z,95.10
2018-04-24T22:17:18.632Z,95.10
2018-04-24T22:19:47.933Z,95.20
2018-04-24T22:22:17.239Z,95.30
2018-04-24T22:24:46.535Z,95.30
2018-04-24T22:27:15.842Z,95.70
2018-04-24T22:29:45.151Z,95.70
2018-04-24T22:32:14.435Z,95.80
2018-04-24T22:34:43.735Z,96.00
2018-04-24T22:37:13.112Z,96.00
2018-04-24T22:39:43.196Z,95.90
2018-04-24T22:42:13.220Z,96.00
2018-04-24T22:44:42.521Z,96.00
2018-04-24T22:47:11.812Z,95.90
2018-04-24T22:49:41.177Z,95.80
2018-04-24T22:52:11.220Z,96.10
2018-04-24T22:54:40.519Z,96.10
2018-04-24T22:57:09.818Z,96.20
2018-04-24T22:59:39.131Z,96.40
2018-04-24T23:02:08.417Z,96.40
2018-04-24T23:04:37.739Z,96.30
2018-04-24T23:07:07.055Z,96.50
2018-04-24T23:09:36.408Z,96.50
2018-04-24T23:12:23.554Z,96.40
2018-04-24T23:15:16.555Z,96.40
2018-04-24T23:18:09.403Z,96.50
2018-04-24T23:20:43.714Z,96.50
2018-04-24T23:23:13.024Z,96.50
2018-04-24T23:25:42.323Z,96.50
2018-04-24T23:28:11.647Z,96.50
2018-04-24T23:30:40.933Z,96.60
2018-04-24T23:33:10.252Z,96.70
2018-04-24T23:35:39.558Z,96.60
2018-04-24T23:38:09.630Z,96.60
2018-04-24T23:40:38.938Z,96.70
2018-04-24T23:43:08.237Z,96.80
2018-04-24T23:45:37.541Z,96.90
2018-04-24T23:48:07.619Z,97.00
2018-04-24T23:50:36.921Z,96.90
2018-04-24T23:53:06.479Z,96.90
2018-04-24T23:55:36.134Z,97.20
2018-04-24T23:58:05.667Z,97.30
